Time;durP1;ratioP1;P1;durP2;ratioP2;P2;SDS_P1;SDS_P2;PMS_P1;PMS_P2;Temp;Humidity;BMP_temperature;BMP_pressure;BME280_temperature;BME280_humidity;BME280_pressure;Samples;Min_cycle;Max_cycle;Signal;HPM_P1;HPM_P2
2022/05/07 00:01:31;;;;;;;36.75;24.50;;;14.40;99.90;;;;;;5019370;28;20037;-83
2022/05/07 00:03:57;;;;;;;37.45;24.65;;;14.40;99.90;;;;;;5022293;28;20086;-83
2022/05/07 00:06:23;;;;;;;38.80;25.92;;;14.40;99.90;;;;;;5024310;28;20052;-82
2022/05/07 00:08:48;;;;;;;40.85;26.15;;;14.40;99.90;;;;;;5025579;28;20032;-83
2022/05/07 00:11:20;;;;;;;39.95;26.15;;;14.40;99.90;;;;;;5031083;28;20029;-84
2022/05/07 00:13:49;;;;;;;36.25;25.33;;;14.30;99.90;;;;;;5037275;28;20034;-82
2022/05/07 00:19:10;;;;;;;40.72;26.33;;;14.30;99.90;;;;;;4985626;28;20239;-82
2022/05/07 00:21:36;;;;;;;41.83;25.77;;;14.30;99.90;;;;;;5038786;28;20068;-82
2022/05/07 00:24:02;;;;;;;36.60;24.33;;;14.30;99.90;;;;;;5037752;28;20058;-83
2022/05/07 00:26:29;;;;;;;35.58;24.70;;;14.30;99.90;;;;;;5037772;28;20036;-83
2022/05/07 00:28:55;;;;;;;34.35;23.98;;;14.20;99.90;;;;;;5035388;28;20034;-83
2022/05/07 00:31:20;;;;;;;33.55;22.83;;;14.20;99.90;;;;;;5050266;28;20041;-82
2022/05/07 00:33:46;;;;;;;31.52;21.90;;;14.20;99.90;;;;;;5036330;28;20057;-83
2022/05/07 00:36:12;;;;;;;32.90;21.95;;;14.30;99.90;;;;;;5037873;28;20034;-81
2022/05/07 00:38:38;;;;;;;35.25;22.55;;;14.20;99.90;;;;;;5039921;28;20046;-82
2022/05/07 00:41:04;;;;;;;33.92;23.13;;;14.20;99.90;;;;;;5039322;28;20041;-81
2022/05/07 00:43:37;;;;;;;32.25;22.90;;;14.20;99.90;;;;;;5056176;28;20037;-82
2022/05/07 00:46:05;;;;;;;35.67;24.33;;;14.20;99.90;;;;;;5040413;28;20018;-81
2022/05/07 00:48:31;;;;;;;37.90;25.63;;;14.20;99.90;;;;;;5039605;28;20011;-82
2022/05/07 00:53:44;;;;;;;33.00;22.17;;;14.20;99.90;;;;;;5040138;28;20117;-82
2022/05/07 00:56:10;;;;;;;32.63;21.25;;;14.20;99.90;;;;;;5039535;28;20026;-82
2022/05/07 00:58:38;;;;;;;34.50;23.25;;;14.20;99.90;;;;;;5039089;28;20025;-80
2022/05/07 01:01:04;;;;;;;39.20;24.42;;;14.20;99.90;;;;;;5039406;28;20025;-80
2022/05/07 01:03:30;;;;;;;32.47;22.35;;;14.20;99.90;;;;;;5038948;28;20053;-81
2022/05/07 01:05:57;;;;;;;34.47;24.08;;;14.20;99.90;;;;;;5055740;28;20010;-83
2022/05/07 01:08:25;;;;;;;30.58;21.45;;;14.20;99.90;;;;;;5055449;28;20037;-82
2022/05/07 01:10:52;;;;;;;34.47;23.70;;;14.20;99.90;;;;;;5022921;28;20014;-81
2022/05/07 01:13:21;;;;;;;36.22;22.65;;;14.20;99.90;;;;;;5039847;28;20014;-83
2022/05/07 01:15:53;;;;;;;35.72;23.10;;;14.20;99.90;;;;;;5023057;28;20045;-80
2022/05/07 01:18:19;;;;;;;35.22;23.50;;;14.10;99.90;;;;;;5022950;28;20030;-82
2022/05/07 01:20:45;;;;;;;36.60;25.40;;;14.10;99.90;;;;;;5038999;28;20018;-80
2022/05/07 01:23:13;;;;;;;42.92;24.75;;;14.10;99.90;;;;;;5039610;28;20093;-81
2022/05/07 01:25:39;;;;;;;35.95;25.17;;;14.10;99.90;;;;;;5038934;28;20025;-82
2022/05/07 01:28:05;;;;;;;44.95;27.55;;;14.00;99.90;;;;;;5055908;28;20030;-82
2022/05/07 01:30:34;;;;;;;42.88;27.55;;;14.00;99.90;;;;;;5039226;28;20011;-82
2022/05/07 01:33:00;;;;;;;42.70;28.90;;;13.90;99.90;;;;;;5022373;28;20030;-82
2022/05/07 01:35:26;;;;;;;43.95;29.98;;;13.90;99.90;;;;;;5031165;28;20038;-84
2022/05/07 01:37:53;;;;;;;46.42;29.58;;;13.80;99.90;;;;;;5020909;28;20151;-83
2022/05/07 01:40:20;;;;;;;49.05;29.25;;;13.80;99.90;;;;;;5021466;28;20436;-85
2022/05/07 01:42:49;;;;;;;45.97;29.13;;;13.80;99.90;;;;;;5022730;28;20041;-84
2022/05/07 01:45:15;;;;;;;45.92;30.38;;;13.80;99.90;;;;;;5021595;28;20061;-84
2022/05/07 01:50:30;;;;;;;43.20;29.42;;;13.90;99.90;;;;;;5022910;28;20057;-84
2022/05/07 01:52:56;;;;;;;45.75;30.08;;;13.90;99.90;;;;;;5041825;28;20294;-84
2022/05/07 01:55:22;;;;;;;43.58;29.08;;;13.90;99.90;;;;;;5026652;28;20029;-84
2022/05/07 01:57:52;;;;;;;50.25;29.70;;;14.00;99.90;;;;;;5040353;28;20097;-82
2022/05/07 02:00:20;;;;;;;44.22;28.80;;;14.00;99.90;;;;;;5023978;28;20096;-84
2022/05/07 02:02:45;;;;;;;42.33;28.27;;;14.10;99.90;;;;;;5018686;28;20026;-84
2022/05/07 02:05:18;;;;;;;42.42;27.50;;;14.20;99.90;;;;;;5018407;28;20029;-83
2022/05/07 02:07:44;;;;;;;43.13;27.58;;;14.20;99.90;;;;;;5043646;28;20040;-81
2022/05/07 02:10:12;;;;;;;38.63;26.15;;;14.30;99.90;;;;;;5038113;28;20033;-82
2022/05/07 02:12:38;;;;;;;38.35;26.23;;;14.40;99.90;;;;;;5037717;28;20093;-83
2022/05/07 02:15:05;;;;;;;38.75;26.33;;;14.40;99.90;;;;;;5036016;28;20030;-82
2022/05/07 02:17:31;;;;;;;43.80;27.92;;;14.50;99.90;;;;;;5054126;28;20018;-83
2022/05/07 02:19:57;;;;;;;45.85;28.60;;;14.40;99.90;;;;;;5037667;28;20090;-82
2022/05/07 02:22:23;;;;;;;42.63;28.60;;;14.40;99.90;;;;;;5027114;28;20061;-82
2022/05/07 02:24:50;;;;;;;47.65;29.27;;;14.40;99.90;;;;;;5037443;28;20034;-81
2022/05/07 02:27:22;;;;;;;44.35;29.65;;;14.30;99.90;;;;;;5036912;28;20042;-84
2022/05/07 02:29:48;;;;;;;49.53;29.73;;;14.30;99.90;;;;;;5037172;28;20028;-82
2022/05/07 02:32:14;;;;;;;46.65;30.02;;;14.30;99.90;;;;;;5037029;28;20046;-83
2022/05/07 02:34:43;;;;;;;42.72;28.70;;;14.20;99.90;;;;;;5078638;22;20041;-84
2022/05/07 02:37:17;;;;;;;46.92;28.23;;;14.20;99.90;;;;;;5044728;28;20044;-84
2022/05/07 02:39:50;;;;;;;39.97;25.00;;;14.20;99.90;;;;;;5046383;28;20029;-86
2022/05/07 02:45:10;;;;;;;41.55;27.02;;;14.10;99.90;;;;;;5052652;28;20025;-82
2022/05/07 02:47:37;;;;;;;41.13;27.63;;;14.10;99.90;;;;;;5056631;28;20017;-85
2022/05/07 02:50:08;;;;;;;46.97;28.90;;;14.10;99.90;;;;;;5056551;28;20037;-83
2022/05/07 02:52:37;;;;;;;48.50;30.00;;;14.10;99.90;;;;;;5056005;28;20089;-85
2022/05/07 02:55:04;;;;;;;50.88;31.95;;;14.10;99.90;;;;;;5042771;28;20022;-84
2022/05/07 02:57:30;;;;;;;49.13;30.40;;;14.10;99.90;;;;;;5043216;28;20026;-84
2022/05/07 02:59:57;;;;;;;48.38;30.13;;;14.00;99.90;;;;;;5049557;28;20016;-86
2022/05/07 03:02:23;;;;;;;47.58;30.02;;;14.00;99.90;;;;;;5055608;28;20101;-85
2022/05/07 03:04:50;;;;;;;45.22;29.75;;;14.00;99.90;;;;;;5053187;28;20030;-86
2022/05/07 03:07:16;;;;;;;50.63;30.73;;;14.00;99.90;;;;;;5052413;28;20033;-86
2022/05/07 03:09:43;;;;;;;46.92;29.60;;;14.00;99.90;;;;;;5049503;28;20472;-85
2022/05/07 03:12:11;;;;;;;43.95;29.58;;;14.00;99.90;;;;;;5044692;28;20030;-86
2022/05/07 03:14:38;;;;;;;44.70;29.27;;;14.00;99.90;;;;;;5023647;28;20030;-86
2022/05/07 03:17:07;;;;;;;44.17;28.73;;;14.00;99.90;;;;;;5039861;28;20044;-86
2022/05/07 03:19:33;;;;;;;45.13;28.55;;;14.00;99.90;;;;;;5040459;28;20037;-85
2022/05/07 03:21:59;;;;;;;46.45;29.73;;;14.00;99.90;;;;;;5021908;28;20041;-84
2022/05/07 03:24:27;;;;;;;45.60;30.02;;;14.00;99.90;;;;;;5038096;28;20029;-86
2022/05/07 03:26:55;;;;;;;41.60;29.27;;;14.00;99.90;;;;;;5038152;28;20386;-85
2022/05/07 03:29:22;;;;;;;43.65;27.80;;;14.00;99.90;;;;;;5037495;28;20052;-86
2022/05/07 03:31:54;;;;;;;42.67;28.20;;;14.00;99.90;;;;;;5037430;28;20038;-87
2022/05/07 03:34:21;;;;;;;41.80;28.30;;;14.10;99.90;;;;;;5037122;28;20040;-83
2022/05/07 03:36:47;;;;;;;42.65;28.52;;;14.10;99.90;;;;;;5039789;28;20025;-84
2022/05/07 03:39:13;;;;;;;44.38;29.52;;;14.00;99.90;;;;;;5055661;28;20017;-86
2022/05/07 03:41:40;;;;;;;45.30;29.38;;;14.10;99.90;;;;;;5038801;28;20030;-86
2022/05/07 03:44:07;;;;;;;47.38;29.67;;;14.10;99.90;;;;;;5048888;28;20079;-86
2022/05/07 03:46:33;;;;;;;46.65;30.55;;;14.10;99.90;;;;;;5050890;28;20029;-83
2022/05/07 03:49:01;;;;;;;54.05;34.80;;;14.10;99.90;;;;;;5049276;28;20037;-86
2022/05/07 03:51:28;;;;;;;55.92;34.55;;;14.10;99.90;;;;;;5055498;28;20026;-86
2022/05/07 03:54:05;;;;;;;54.78;34.90;;;14.10;99.90;;;;;;5053678;28;20029;-86
2022/05/07 03:56:32;;;;;;;52.45;34.47;;;14.10;99.90;;;;;;5046669;28;20051;-87
2022/05/07 03:59:00;;;;;;;57.60;35.70;;;14.10;99.90;;;;;;5041152;28;20389;-87
2022/05/07 04:01:44;;;;;;;55.80;34.92;;;14.20;99.90;;;;;;5041505;28;20041;-86
2022/05/07 04:04:10;;;;;;;62.95;37.25;;;14.20;99.90;;;;;;5044067;28;20025;-85
2022/05/07 04:06:37;;;;;;;58.47;36.80;;;14.10;99.90;;;;;;5039268;28;20080;-86
2022/05/07 04:09:03;;;;;;;60.33;37.47;;;14.10;99.90;;;;;;5046097;28;20029;-84
2022/05/07 04:11:29;;;;;;;68.18;39.72;;;14.10;99.90;;;;;;5058310;28;20492;-85
2022/05/07 04:13:58;;;;;;;64.53;38.15;;;14.10;99.90;;;;;;5054793;28;20033;-85
2022/05/07 04:16:25;;;;;;;63.95;38.97;;;14.10;99.90;;;;;;5048674;28;20025;-85
2022/05/07 04:19:00;;;;;;;68.10;40.17;;;14.10;99.90;;;;;;5053856;28;20393;-86
2022/05/07 04:21:27;;;;;;;68.47;40.83;;;14.10;99.90;;;;;;5042376;28;20048;-86
2022/05/07 04:24:02;;;;;;;66.05;41.22;;;14.10;99.90;;;;;;5019877;28;20037;-87
2022/05/07 04:26:30;;;;;;;65.72;40.67;;;14.10;99.90;;;;;;5042479;28;20031;-85
2022/05/07 04:28:58;;;;;;;68.15;41.42;;;14.20;99.90;;;;;;5029006;28;20085;-86
2022/05/07 04:31:25;;;;;;;64.93;40.65;;;14.20;99.90;;;;;;5050975;28;20049;-86
2022/05/07 04:33:58;;;;;;;70.97;41.03;;;14.20;99.90;;;;;;5038815;28;20025;-86
2022/05/07 04:36:25;;;;;;;64.63;40.20;;;14.30;99.90;;;;;;5036735;28;20029;-86
2022/05/07 04:38:53;;;;;;;67.35;40.85;;;14.40;99.90;;;;;;5037822;28;20030;-85
2022/05/07 04:41:26;;;;;;;75.70;42.65;;;14.40;99.90;;;;;;5046531;28;20026;-85
2022/05/07 04:43:52;;;;;;;69.10;43.15;;;14.40;99.90;;;;;;5047258;28;20055;-85
2022/05/07 04:46:18;;;;;;;77.07;42.92;;;14.50;99.90;;;;;;5057076;28;20045;-86
2022/05/07 04:48:49;;;;;;;70.35;43.15;;;14.50;99.90;;;;;;5049514;28;20059;-85
2022/05/07 04:51:15;;;;;;;67.85;41.58;;;14.60;99.90;;;;;;5045636;28;20037;-85
2022/05/07 04:53:54;;;;;;;65.25;40.08;;;14.70;99.90;;;;;;5048912;28;20103;-86
2022/05/07 04:56:24;;;;;;;62.72;39.03;;;14.60;99.90;;;;;;5038538;28;20588;-85
2022/05/07 04:58:58;;;;;;;61.75;38.38;;;14.70;99.90;;;;;;5043660;28;20061;-85
2022/05/07 05:01:32;;;;;;;62.88;39.55;;;14.60;99.90;;;;;;5045537;28;20037;-86
2022/05/07 05:03:58;;;;;;;60.80;37.17;;;14.70;99.90;;;;;;5058000;28;20040;-85
2022/05/07 05:06:28;;;;;;;62.15;38.53;;;14.80;99.90;;;;;;5057813;28;20014;-86
2022/05/07 05:08:59;;;;;;;65.30;40.10;;;14.80;99.90;;;;;;5057826;28;20385;-86
2022/05/07 05:11:25;;;;;;;62.72;37.92;;;14.80;99.90;;;;;;5044208;28;20449;-86
2022/05/07 05:13:52;;;;;;;64.70;37.75;;;14.90;99.90;;;;;;5041998;28;20112;-86
2022/05/07 05:16:18;;;;;;;67.13;39.20;;;14.90;99.90;;;;;;5041967;28;20122;-87
2022/05/07 05:18:47;;;;;;;65.32;39.00;;;14.90;99.90;;;;;;5040463;28;20017;-85
2022/05/07 05:21:17;;;;;;;63.37;38.73;;;14.90;99.90;;;;;;5063400;28;20085;-84
2022/05/07 05:23:58;;;;;;;68.03;39.53;;;14.90;99.90;;;;;;5052977;28;20312;-85
2022/05/07 05:26:24;;;;;;;61.00;37.05;;;14.90;99.90;;;;;;5042327;28;20436;-85
2022/05/07 05:28:54;;;;;;;59.83;37.38;;;14.90;99.90;;;;;;5041828;28;20033;-84
2022/05/07 05:31:23;;;;;;;58.92;36.97;;;14.90;99.90;;;;;;5042376;28;20036;-85
2022/05/07 05:33:57;;;;;;;64.18;36.45;;;14.90;99.90;;;;;;5042918;28;20022;-86
2022/05/07 05:36:35;;;;;;;58.60;35.65;;;14.90;99.90;;;;;;5042472;28;20037;-87
2022/05/07 05:39:03;;;;;;;67.63;38.72;;;15.00;99.90;;;;;;5041725;28;20036;-85
2022/05/07 05:41:30;;;;;;;59.85;36.00;;;15.00;99.90;;;;;;5041765;28;20028;-85
2022/05/07 05:43:57;;;;;;;59.08;34.92;;;15.10;99.90;;;;;;5049245;28;20028;-87
2022/05/07 05:46:24;;;;;;;59.97;36.08;;;15.00;99.90;;;;;;5056809;28;20021;-89
2022/05/07 05:48:50;;;;;;;56.92;34.63;;;15.00;99.90;;;;;;5041176;28;20025;-88
2022/05/07 05:51:16;;;;;;;58.65;35.67;;;15.10;99.90;;;;;;5042879;28;20033;-85
2022/05/07 05:53:46;;;;;;;54.47;33.22;;;15.10;99.90;;;;;;5042755;28;20049;-87
2022/05/07 05:56:13;;;;;;;57.95;34.15;;;15.20;99.90;;;;;;5048791;28;20504;-85
2022/05/07 05:58:46;;;;;;;54.50;33.78;;;15.20;99.90;;;;;;5046072;28;20045;-84
2022/05/07 06:01:14;;;;;;;54.42;32.97;;;15.20;99.90;;;;;;5044491;28;20036;-86
2022/05/07 06:03:52;;;;;;;60.95;32.85;;;15.30;99.90;;;;;;5054914;28;20037;-86
2022/05/07 06:06:18;;;;;;;55.22;32.70;;;15.40;99.90;;;;;;5049305;28;20485;-84
2022/05/07 06:08:44;;;;;;;49.22;31.92;;;15.40;99.90;;;;;;5048056;28;20025;-86
2022/05/07 06:11:11;;;;;;;60.90;36.55;;;15.50;99.90;;;;;;5054157;28;20028;-86
2022/05/07 06:13:38;;;;;;;53.20;33.33;;;15.50;99.90;;;;;;5041086;28;20124;-87
2022/05/07 06:16:04;;;;;;;54.15;33.30;;;15.60;99.90;;;;;;5051768;28;20033;-87
2022/05/07 06:18:30;;;;;;;51.65;33.25;;;15.50;99.90;;;;;;5043860;28;20104;-87
2022/05/07 06:21:03;;;;;;;51.30;33.08;;;15.60;99.90;;;;;;5041495;28;20034;-86
2022/05/07 06:23:31;;;;;;;50.45;31.70;;;15.60;99.90;;;;;;5041028;28;20083;-86
2022/05/07 06:28:42;;;;;;;51.75;31.45;;;15.60;99.90;;;;;;5045626;28;20020;-84
2022/05/07 06:31:10;;;;;;;53.80;31.15;;;15.70;99.90;;;;;;5048614;28;20049;-86
2022/05/07 06:33:41;;;;;;;46.25;30.95;;;15.70;99.90;;;;;;5042414;28;20035;-87
2022/05/07 06:36:09;;;;;;;49.20;32.30;;;15.70;99.90;;;;;;5042406;28;20061;-88
2022/05/07 06:38:38;;;;;;;49.10;32.03;;;15.70;99.90;;;;;;5041968;28;20100;-87
2022/05/07 06:41:06;;;;;;;47.63;30.60;;;15.70;99.90;;;;;;5043592;28;20034;-87
2022/05/07 06:43:40;;;;;;;54.55;32.72;;;15.70;99.90;;;;;;5041709;28;20030;-86
2022/05/07 06:46:14;;;;;;;53.65;31.17;;;15.70;99.90;;;;;;5044057;28;20025;-87
2022/05/07 06:49:03;;;;;;;48.17;30.60;;;15.80;99.90;;;;;;5045580;28;20047;-86
2022/05/07 06:51:40;;;;;;;49.00;31.60;;;15.70;99.90;;;;;;5046446;28;20029;-86
2022/05/07 06:54:05;;;;;;;48.47;31.48;;;15.70;99.90;;;;;;5046506;28;20033;-87
2022/05/07 06:56:31;;;;;;;47.40;31.00;;;15.70;99.90;;;;;;5048114;28;20025;-86
2022/05/07 06:58:57;;;;;;;49.53;30.98;;;15.80;99.90;;;;;;5051049;28;20033;-85
2022/05/07 07:01:23;;;;;;;50.50;30.95;;;15.80;99.90;;;;;;5054343;28;20088;-87
2022/05/07 07:03:48;;;;;;;46.95;30.50;;;15.80;99.90;;;;;;5049154;28;20106;-86
2022/05/07 07:06:15;;;;;;;47.22;31.80;;;15.80;99.90;;;;;;5048492;28;20056;-86
2022/05/07 07:08:42;;;;;;;45.05;30.08;;;15.90;99.90;;;;;;5047669;28;20033;-86
2022/05/07 07:11:09;;;;;;;48.55;32.55;;;15.90;99.90;;;;;;5050541;28;20099;-86
2022/05/07 07:13:35;;;;;;;53.00;32.83;;;15.90;99.90;;;;;;5046822;28;20041;-87
2022/05/07 07:16:01;;;;;;;44.55;30.05;;;16.00;99.90;;;;;;5052148;28;20026;-86
2022/05/07 07:18:27;;;;;;;51.15;32.22;;;16.00;99.90;;;;;;5045562;28;20037;-87
2022/05/07 07:20:52;;;;;;;49.72;31.92;;;16.00;99.90;;;;;;5041435;28;20025;-87
2022/05/07 07:23:18;;;;;;;47.42;30.67;;;16.00;99.90;;;;;;5043114;28;20033;-85
2022/05/07 07:25:44;;;;;;;50.50;31.55;;;16.00;99.90;;;;;;5041576;28;20116;-88
2022/05/07 07:28:11;;;;;;;49.83;30.10;;;15.90;99.90;;;;;;5043083;28;20055;-87
2022/05/07 07:30:38;;;;;;;44.03;27.95;;;15.90;99.90;;;;;;5044925;28;20078;-86
2022/05/07 07:33:05;;;;;;;43.08;28.85;;;16.10;99.90;;;;;;5046466;28;20034;-86
2022/05/07 07:35:31;;;;;;;45.10;29.52;;;16.20;99.90;;;;;;5050392;28;20049;-86
2022/05/07 07:37:57;;;;;;;44.45;28.80;;;16.30;99.90;;;;;;5051520;28;20060;-86
2022/05/07 07:40:26;;;;;;;56.22;29.15;;;16.40;99.90;;;;;;5053707;28;20021;-85
2022/05/07 07:42:52;;;;;;;44.40;28.55;;;16.60;99.90;;;;;;5057358;28;20059;-87
2022/05/07 07:48:05;;;;;;;38.88;26.90;;;17.10;99.90;;;;;;5060967;28;20021;-88
2022/05/07 07:50:32;;;;;;;40.28;27.70;;;17.20;99.90;;;;;;5060220;28;20097;-87
2022/05/07 07:53:01;;;;;;;43.33;28.45;;;17.20;99.90;;;;;;5060966;28;20028;-87
2022/05/07 07:55:27;;;;;;;48.00;28.90;;;17.50;99.90;;;;;;5060850;28;20018;-86
2022/05/07 07:57:55;;;;;;;39.40;26.92;;;17.60;99.90;;;;;;5060279;28;20022;-85
2022/05/07 08:00:21;;;;;;;44.85;29.30;;;17.80;99.90;;;;;;5058928;28;20025;-86
2022/05/07 08:02:54;;;;;;;50.05;28.40;;;17.80;99.90;;;;;;5060253;28;20065;-87
2022/05/07 08:05:28;;;;;;;44.58;27.70;;;17.80;99.90;;;;;;5060572;28;20021;-86
2022/05/07 08:13:23;;;;;;;44.75;29.20;;;17.80;99.90;;;;;;5058461;28;20038;-86
2022/05/07 08:15:49;;;;;;;45.53;29.67;;;17.80;99.90;;;;;;5058312;28;20097;-87
2022/05/07 08:18:16;;;;;;;44.28;30.02;;;17.70;99.90;;;;;;5059153;28;20041;-86
2022/05/07 08:20:43;;;;;;;49.38;31.67;;;17.70;99.90;;;;;;5056492;28;20031;-87
2022/05/07 08:23:10;;;;;;;47.20;29.77;;;17.80;99.90;;;;;;5055041;28;20029;-86
2022/05/07 08:25:36;;;;;;;44.03;30.00;;;17.80;99.90;;;;;;5055934;28;20073;-86
2022/05/07 08:28:02;;;;;;;47.60;28.95;;;17.80;99.90;;;;;;5057833;28;20022;-88
2022/05/07 08:30:28;;;;;;;44.75;30.52;;;17.80;99.90;;;;;;5059507;28;20089;-86
2022/05/07 08:32:54;;;;;;;47.38;30.42;;;17.90;99.90;;;;;;5059621;28;20033;-87
2022/05/07 08:35:20;;;;;;;46.55;30.60;;;17.90;99.90;;;;;;5077119;23;20511;-84
2022/05/07 08:37:46;;;;;;;51.63;29.80;;;18.00;99.90;;;;;;5090685;28;20036;-86
2022/05/07 08:40:16;;;;;;;44.95;29.58;;;18.10;99.90;;;;;;5091006;28;20025;-85
2022/05/07 08:42:43;;;;;;;46.95;30.38;;;18.40;99.90;;;;;;5074969;28;20116;-84
2022/05/07 08:45:11;;;;;;;42.35;26.20;;;18.60;99.90;;;;;;5082891;28;20029;-84
2022/05/07 08:47:36;;;;;;;39.25;27.42;;;18.60;99.90;;;;;;5071642;28;20440;-85
2022/05/07 08:50:03;;;;;;;42.50;28.88;;;18.80;99.90;;;;;;5070897;28;20021;-85
2022/05/07 08:52:29;;;;;;;40.70;28.02;;;19.00;99.90;;;;;;5069226;28;20352;-85
2022/05/07 08:54:57;;;;;;;40.22;26.45;;;19.30;99.90;;;;;;5068803;28;20032;-85
2022/05/07 08:57:25;;;;;;;38.03;26.48;;;19.60;99.90;;;;;;5068947;28;20055;-84
2022/05/07 08:59:51;;;;;;;35.85;24.95;;;19.90;99.90;;;;;;5068715;28;20021;-85
2022/05/07 09:02:17;;;;;;;38.05;24.67;;;19.90;99.90;;;;;;5069818;28;20056;-85
2022/05/07 09:04:55;;;;;;;37.90;25.42;;;20.00;99.90;;;;;;5071407;28;20072;-83
2022/05/07 09:07:21;;;;;;;41.08;25.83;;;20.10;99.90;;;;;;5053059;28;20288;-86
2022/05/07 09:09:51;;;;;;;36.25;24.80;;;20.00;99.90;;;;;;5068861;28;20029;-85
2022/05/07 09:12:28;;;;;;;34.75;23.95;;;20.20;99.90;;;;;;5074965;28;20020;-82
2022/05/07 09:15:01;;;;;;;34.08;23.73;;;20.40;99.90;;;;;;5074486;28;20029;-86
2022/05/07 09:17:27;;;;;;;31.13;23.52;;;20.60;99.90;;;;;;5070026;28;20089;-86
2022/05/07 09:19:53;;;;;;;32.53;22.17;;;20.60;99.90;;;;;;5071411;28;20071;-86
2022/05/07 09:22:19;;;;;;;33.67;22.92;;;20.70;99.90;;;;;;5057740;28;20052;-86
2022/05/07 09:24:56;;;;;;;32.88;22.75;;;20.90;99.90;;;;;;5073604;28;20057;-85
2022/05/07 09:27:22;;;;;;;32.22;22.42;;;21.00;99.90;;;;;;5069643;28;20055;-85
2022/05/07 09:29:59;;;;;;;31.35;22.45;;;21.10;99.90;;;;;;5051009;28;20021;-85
2022/05/07 09:32:36;;;;;;;29.58;21.05;;;21.20;99.90;;;;;;5071604;28;20112;-86
2022/05/07 09:38:05;;;;;;;33.17;23.02;;;21.20;99.90;;;;;;5071375;28;20021;-86
2022/05/07 09:40:32;;;;;;;32.22;20.92;;;21.20;99.90;;;;;;5066736;28;20033;-86
2022/05/07 09:42:58;;;;;;;29.27;21.58;;;21.30;99.90;;;;;;5068304;28;20030;-86
2022/05/07 09:45:28;;;;;;;29.38;21.23;;;21.30;99.90;;;;;;5065447;28;20040;-83
2022/05/07 09:47:55;;;;;;;31.15;20.75;;;21.20;99.90;;;;;;5070016;28;20037;-86
2022/05/07 09:50:43;;;;;;;30.00;21.08;;;21.30;99.90;;;;;;5062298;28;20028;-86
2022/05/07 09:58:45;;;;;;;30.45;21.67;;;20.90;99.90;;;;;;5044845;28;20041;-86
2022/05/07 10:01:21;;;;;;;27.95;20.30;;;21.00;99.90;;;;;;5062597;28;20031;-84
2022/05/07 10:03:47;;;;;;;27.17;19.38;;;21.20;99.90;;;;;;5062054;28;20044;-86
2022/05/07 10:06:31;;;;;;;27.05;18.33;;;21.10;99.90;;;;;;5061179;28;20029;-84
2022/05/07 10:09:15;;;;;;;27.53;18.93;;;21.10;99.90;;;;;;5044613;28;20119;-85
2022/05/07 10:11:42;;;;;;;25.45;18.48;;;21.10;99.90;;;;;;5062088;28;20377;-84
2022/05/07 10:14:08;;;;;;;27.13;17.95;;;21.10;99.90;;;;;;5062119;28;20036;-85
2022/05/07 10:16:36;;;;;;;28.02;18.67;;;21.10;99.90;;;;;;5061934;28;20025;-85
2022/05/07 10:19:12;;;;;;;25.38;18.23;;;21.00;99.90;;;;;;5061265;28;20040;-86
2022/05/07 10:21:37;;;;;;;24.30;17.38;;;21.00;99.90;;;;;;5060323;28;20032;-86
2022/05/07 10:24:05;;;;;;;24.05;17.38;;;20.60;99.90;;;;;;5061245;28;20021;-84
2022/05/07 10:26:43;;;;;;;29.60;17.20;;;20.40;99.90;;;;;;5060839;28;20029;-85
2022/05/07 10:29:25;;;;;;;23.80;17.65;;;20.40;99.90;;;;;;5070719;28;20036;-85
2022/05/07 10:32:02;;;;;;;26.33;17.70;;;20.20;99.90;;;;;;5050468;28;20055;-86
2022/05/07 10:34:28;;;;;;;25.15;17.63;;;19.90;99.90;;;;;;5062454;28;20052;-86
2022/05/07 10:37:05;;;;;;;25.38;18.45;;;19.70;99.90;;;;;;5063619;28;20495;-86
2022/05/07 10:39:32;;;;;;;22.40;17.10;;;19.50;99.90;;;;;;5063191;28;20047;-85
2022/05/07 10:42:01;;;;;;;24.75;17.15;;;19.30;99.90;;;;;;5065965;28;20049;-84
2022/05/07 10:44:34;;;;;;;23.50;16.83;;;19.40;99.90;;;;;;5064162;28;20029;-84
2022/05/07 10:47:10;;;;;;;26.42;16.77;;;19.40;99.90;;;;;;5047273;28;20040;-86
2022/05/07 10:49:53;;;;;;;24.17;17.65;;;19.60;99.90;;;;;;5045257;28;20088;-84
2022/05/07 10:52:30;;;;;;;27.55;17.17;;;19.80;99.90;;;;;;5065374;28;20024;-85
2022/05/07 10:55:17;;;;;;;24.27;16.48;;;19.80;99.90;;;;;;5064209;28;20037;-86
2022/05/07 10:57:48;;;;;;;25.92;16.95;;;19.80;99.90;;;;;;5044536;28;20124;-87
2022/05/07 11:00:17;;;;;;;23.00;16.55;;;20.00;99.90;;;;;;5065046;28;20057;-86
2022/05/07 11:02:44;;;;;;;23.83;16.63;;;20.20;99.90;;;;;;5065528;28;20029;-86
2022/05/07 11:05:11;;;;;;;24.45;17.15;;;20.40;99.90;;;;;;5047686;28;20083;-86
2022/05/07 11:07:42;;;;;;;24.85;18.15;;;20.40;99.90;;;;;;5068582;28;20046;-81
2022/05/07 11:10:09;;;;;;;24.45;17.50;;;20.40;99.90;;;;;;5076974;28;20025;-84
2022/05/07 11:12:39;;;;;;;24.98;17.15;;;20.70;99.90;;;;;;5063298;28;20021;-85
2022/05/07 11:15:07;;;;;;;27.17;16.25;;;21.00;99.90;;;;;;5066942;28;20028;-84
2022/05/07 11:17:35;;;;;;;23.92;15.52;;;21.50;99.90;;;;;;5043915;28;20051;-83
2022/05/07 11:20:03;;;;;;;19.90;15.13;;;21.90;99.90;;;;;;5074001;28;20044;-81
2022/05/07 11:22:32;;;;;;;21.92;16.05;;;22.10;99.90;;;;;;5063409;28;20032;-83
2022/05/07 11:25:02;;;;;;;22.77;15.98;;;22.40;99.90;;;;;;5063273;28;20017;-82
2022/05/07 11:27:33;;;;;;;19.27;14.60;;;22.60;99.90;;;;;;5080907;28;20051;-84
2022/05/07 11:30:04;;;;;;;21.85;14.38;;;22.70;99.90;;;;;;5080917;28;20033;-84
2022/05/07 11:32:41;;;;;;;19.85;13.98;;;22.90;99.90;;;;;;5063499;28;20027;-83
2022/05/07 11:35:09;;;;;;;24.58;15.38;;;23.30;99.90;;;;;;5080448;28;20017;-83
2022/05/07 11:37:42;;;;;;;20.98;14.73;;;23.70;99.90;;;;;;5080941;28;20009;-84
2022/05/07 11:40:26;;;;;;;20.30;14.77;;;23.90;99.90;;;;;;5079729;28;20037;-83
2022/05/07 11:45:25;;;;;;;20.73;13.48;;;24.00;99.90;;;;;;5080671;28;20075;-85
2022/05/07 11:45:37;;;;;;;19.13;14.15;;;23.90;99.90;;;;;;5077974;28;20040;-87
2022/05/07 11:48:14;;;;;;;17.35;13.10;;;23.80;99.90;;;;;;5077956;28;20012;-85
2022/05/07 11:50:54;;;;;;;18.95;14.45;;;23.40;99.90;;;;;;5076693;28;20037;-86
2022/05/07 11:53:22;;;;;;;20.38;14.15;;;22.90;99.90;;;;;;5057650;28;20123;-84
2022/05/07 11:55:49;;;;;;;22.70;14.65;;;22.90;99.90;;;;;;5075133;28;20036;-86
2022/05/07 11:58:24;;;;;;;19.48;13.93;;;22.90;99.90;;;;;;5076499;28;20032;-83
2022/05/07 12:00:56;;;;;;;19.20;13.77;;;22.90;99.90;;;;;;5076312;28;20028;-83
2022/05/07 12:03:26;;;;;;;21.13;13.85;;;22.90;99.90;;;;;;5078870;28;20070;-84
2022/05/07 12:05:56;;;;;;;14.27;11.70;;;23.20;99.90;;;;;;5077720;28;20013;-83
2022/05/07 12:08:32;;;;;;;15.57;12.88;;;23.60;99.90;;;;;;5075131;28;20029;-84
2022/05/07 12:10:59;;;;;;;17.73;12.88;;;23.90;99.90;;;;;;5074159;28;20092;-84
2022/05/07 12:13:26;;;;;;;19.33;12.70;;;24.20;99.90;;;;;;5075972;28;20029;-84
2022/05/07 12:18:41;;;;;;;17.00;12.85;;;24.70;99.90;;;;;;5078585;28;20047;-85
2022/05/07 12:21:08;;;;;;;16.20;12.38;;;25.30;99.90;;;;;;5078865;28;20014;-85
2022/05/07 12:31:50;;;;;;;15.05;12.05;;;26.90;98.40;;;;;;5074323;28;20052;-83
2022/05/07 12:34:16;;;;;;;15.57;12.18;;;26.70;98.20;;;;;;5076471;28;20047;-83
2022/05/07 12:36:42;;;;;;;14.55;11.35;;;26.80;97.80;;;;;;5060367;28;20048;-83
2022/05/07 12:39:08;;;;;;;15.15;10.80;;;26.80;97.60;;;;;;5061079;28;20033;-84
2022/05/07 12:41:34;;;;;;;15.20;11.65;;;27.10;97.50;;;;;;5076833;28;20040;-84
2022/05/07 12:44:00;;;;;;;14.68;11.68;;;27.40;96.90;;;;;;5077865;28;20060;-83
2022/05/07 12:46:26;;;;;;;16.85;12.57;;;27.00;96.90;;;;;;5076687;28;20029;-85
2022/05/07 12:48:55;;;;;;;17.60;11.90;;;26.70;97.20;;;;;;5077907;28;20017;-85
2022/05/07 12:51:22;;;;;;;21.40;12.18;;;25.90;97.70;;;;;;5061023;28;20032;-84
2022/05/07 12:53:49;;;;;;;16.10;11.65;;;25.20;98.40;;;;;;5078103;28;20253;-85
2022/05/07 12:56:14;;;;;;;18.70;13.00;;;25.10;99.00;;;;;;5076877;28;20056;-84
2022/05/07 12:58:54;;;;;;;16.80;12.80;;;24.80;99.40;;;;;;5077625;28;20072;-83
2022/05/07 13:01:20;;;;;;;14.93;12.15;;;25.10;99.10;;;;;;5076747;28;20041;-84
2022/05/07 13:03:46;;;;;;;14.43;11.50;;;25.40;98.80;;;;;;5076018;28;20028;-84
2022/05/07 13:06:12;;;;;;;13.95;10.70;;;25.70;98.60;;;;;;5057300;28;20029;-85
2022/05/07 13:08:38;;;;;;;16.35;11.98;;;25.80;98.30;;;;;;5058446;28;20481;-84
2022/05/07 13:11:04;;;;;;;18.38;12.20;;;25.80;98.20;;;;;;5059297;28;20047;-83
2022/05/07 13:13:29;;;;;;;15.10;11.93;;;25.90;98.10;;;;;;5059395;28;20037;-86
2022/05/07 13:15:55;;;;;;;14.18;11.50;;;25.90;98.00;;;;;;5057016;28;20045;-85
2022/05/07 13:18:21;;;;;;;17.02;12.57;;;25.90;97.70;;;;;;5077390;28;20081;-86